sensor_id;sensor_type;location;lat;lon;timestamp;P1;durP1;ratioP1;P2;durP2;ratioP2
31406;SDS011;18043;52.438;4.836;2022-07-01T00:00:37;3.83;;;2.05;;
31406;SDS011;18043;52.438;4.836;2022-07-01T00:03:10;5.90;;;2.13;;
31406;SDS011;18043;52.438;4.836;2022-07-01T00:05:43;3.00;;;1.50;;
31406;SDS011;18043;52.438;4.836;2022-07-01T00:08:17;5.38;;;2.10;;
31406;SDS011;18043;52.438;4.836;2022-07-01T00:10:49;4.25;;;2.03;;
31406;SDS011;18043;52.438;4.836;2022-07-01T00:13:22;8.20;;;2.28;;
31406;SDS011;18043;52.438;4.836;2022-07-01T00:15:55;5.00;;;2.35;;
31406;SDS011;18043;52.438;4.836;2022-07-01T00:18:28;6.35;;;2.45;;
31406;SDS011;18043;52.438;4.836;2022-07-01T00:21:00;5.28;;;2.67;;
31406;SDS011;18043;52.438;4.836;2022-07-01T00:23:35;8.13;;;3.40;;
31406;SDS011;18043;52.438;4.836;2022-07-01T00:26:08;9.05;;;3.55;;
31406;SDS011;18043;52.438;4.836;2022-07-01T00:28:41;6.65;;;4.00;;
31406;SDS011;18043;52.438;4.836;2022-07-01T00:31:13;7.32;;;5.18;;
31406;SDS011;18043;52.438;4.836;2022-07-01T00:33:46;11.85;;;5.60;;
31406;SDS011;18043;52.438;4.836;2022-07-01T00:36:19;10.03;;;6.27;;
31406;SDS011;18043;52.438;4.836;2022-07-01T00:38:53;9.65;;;7.15;;
31406;SDS011;18043;52.438;4.836;2022-07-01T00:41:26;10.30;;;7.63;;
31406;SDS011;18043;52.438;4.836;2022-07-01T00:43:59;12.63;;;8.57;;
31406;SDS011;18043;52.438;4.836;2022-07-01T00:46:32;16.23;;;11.10;;
31406;SDS011;18043;52.438;4.836;2022-07-01T00:49:04;15.00;;;10.90;;
31406;SDS011;18043;52.438;4.836;2022-07-01T00:51:37;19.63;;;12.95;;
31406;SDS011;18043;52.438;4.836;2022-07-01T00:54:12;17.73;;;13.88;;
31406;SDS011;18043;52.438;4.836;2022-07-01T00:56:44;26.15;;;16.90;;
31406;SDS011;18043;52.438;4.836;2022-07-01T00:59:17;23.88;;;16.70;;
31406;SDS011;18043;52.438;4.836;2022-07-01T01:01:50;23.35;;;18.23;;
31406;SDS011;18043;52.438;4.836;2022-07-01T01:04:23;23.63;;;18.00;;
31406;SDS011;18043;52.438;4.836;2022-07-01T01:06:56;28.60;;;20.67;;
31406;SDS011;18043;52.438;4.836;2022-07-01T01:09:30;28.05;;;20.67;;
31406;SDS011;18043;52.438;4.836;2022-07-01T01:12:04;31.23;;;21.35;;
31406;SDS011;18043;52.438;4.836;2022-07-01T01:14:44;32.92;;;23.25;;
31406;SDS011;18043;52.438;4.836;2022-07-01T01:17:17;35.80;;;24.30;;
31406;SDS011;18043;52.438;4.836;2022-07-01T01:19:52;34.95;;;25.02;;
31406;SDS011;18043;52.438;4.836;2022-07-01T01:22:26;33.67;;;24.95;;
31406;SDS011;18043;52.438;4.836;2022-07-01T01:24:59;32.67;;;25.20;;
31406;SDS011;18043;52.438;4.836;2022-07-01T01:27:35;41.13;;;25.08;;
31406;SDS011;18043;52.438;4.836;2022-07-01T01:30:09;38.47;;;25.88;;
31406;SDS011;18043;52.438;4.836;2022-07-01T01:32:43;37.65;;;25.35;;
31406;SDS011;18043;52.438;4.836;2022-07-01T01:35:16;35.10;;;25.07;;
31406;SDS011;18043;52.438;4.836;2022-07-01T01:37:50;37.42;;;27.13;;
31406;SDS011;18043;52.438;4.836;2022-07-01T01:40:23;38.47;;;28.10;;
31406;SDS011;18043;52.438;4.836;2022-07-01T01:42:56;42.35;;;27.48;;
31406;SDS011;18043;52.438;4.836;2022-07-01T01:45:29;41.47;;;27.77;;
31406;SDS011;18043;52.438;4.836;2022-07-01T01:48:02;40.53;;;27.70;;
31406;SDS011;18043;52.438;4.836;2022-07-01T01:50:34;45.47;;;28.75;;
31406;SDS011;18043;52.438;4.836;2022-07-01T01:53:08;45.33;;;28.75;;
31406;SDS011;18043;52.438;4.836;2022-07-01T01:55:41;48.35;;;28.80;;
31406;SDS011;18043;52.438;4.836;2022-07-01T01:58:14;38.58;;;27.23;;
31406;SDS011;18043;52.438;4.836;2022-07-01T02:00:47;49.07;;;30.33;;
31406;SDS011;18043;52.438;4.836;2022-07-01T02:03:19;49.78;;;30.60;;
31406;SDS011;18043;52.438;4.836;2022-07-01T02:05:52;47.22;;;31.08;;
31406;SDS011;18043;52.438;4.836;2022-07-01T02:08:26;46.13;;;29.15;;
31406;SDS011;18043;52.438;4.836;2022-07-01T02:10:59;45.53;;;29.30;;
31406;SDS011;18043;52.438;4.836;2022-07-01T02:13:32;40.47;;;27.53;;
31406;SDS011;18043;52.438;4.836;2022-07-01T02:16:06;40.60;;;28.30;;
31406;SDS011;18043;52.438;4.836;2022-07-01T02:18:38;37.65;;;27.65;;
31406;SDS011;18043;52.438;4.836;2022-07-01T02:21:11;37.53;;;27.67;;
31406;SDS011;18043;52.438;4.836;2022-07-01T02:23:45;40.43;;;27.73;;
31406;SDS011;18043;52.438;4.836;2022-07-01T02:26:18;40.10;;;26.83;;
31406;SDS011;18043;52.438;4.836;2022-07-01T02:28:51;42.83;;;28.73;;
31406;SDS011;18043;52.438;4.836;2022-07-01T02:31:23;41.70;;;27.42;;
31406;SDS011;18043;52.438;4.836;2022-07-01T02:33:56;38.53;;;25.60;;
31406;SDS011;18043;52.438;4.836;2022-07-01T02:36:29;40.60;;;26.73;;
31406;SDS011;18043;52.438;4.836;2022-07-01T02:39:03;39.63;;;25.85;;
31406;SDS011;18043;52.438;4.836;2022-07-01T02:41:36;36.58;;;25.48;;
31406;SDS011;18043;52.438;4.836;2022-07-01T02:44:22;35.53;;;23.15;;
31406;SDS011;18043;52.438;4.836;2022-07-01T02:46:55;43.22;;;26.33;;
31406;SDS011;18043;52.438;4.836;2022-07-01T02:49:28;41.08;;;26.35;;
31406;SDS011;18043;52.438;4.836;2022-07-01T02:52:00;38.42;;;25.95;;
31406;SDS011;18043;52.438;4.836;2022-07-01T02:54:35;39.40;;;25.63;;
31406;SDS011;18043;52.438;4.836;2022-07-01T02:57:08;41.67;;;26.55;;
31406;SDS011;18043;52.438;4.836;2022-07-01T02:59:40;47.72;;;27.10;;
31406;SDS011;18043;52.438;4.836;2022-07-01T03:02:13;44.03;;;25.85;;
31406;SDS011;18043;52.438;4.836;2022-07-01T03:04:46;36.83;;;24.67;;
31406;SDS011;18043;52.438;4.836;2022-07-01T03:07:19;39.55;;;24.35;;
31406;SDS011;18043;52.438;4.836;2022-07-01T03:09:53;36.70;;;23.90;;
31406;SDS011;18043;52.438;4.836;2022-07-01T03:12:26;41.22;;;26.05;;
31406;SDS011;18043;52.438;4.836;2022-07-01T03:14:59;43.17;;;25.63;;
31406;SDS011;18043;52.438;4.836;2022-07-01T03:17:34;39.65;;;25.42;;
31406;SDS011;18043;52.438;4.836;2022-07-01T03:20:09;41.95;;;25.30;;
31406;SDS011;18043;52.438;4.836;2022-07-01T03:22:44;42.00;;;25.02;;
31406;SDS011;18043;52.438;4.836;2022-07-01T03:25:19;45.70;;;25.25;;
31406;SDS011;18043;52.438;4.836;2022-07-01T03:27:52;44.97;;;25.30;;
31406;SDS011;18043;52.438;4.836;2022-07-01T03:30:24;37.63;;;24.10;;
31406;SDS011;18043;52.438;4.836;2022-07-01T03:32:57;33.35;;;22.63;;
31406;SDS011;18043;52.438;4.836;2022-07-01T03:35:30;39.30;;;23.35;;
31406;SDS011;18043;52.438;4.836;2022-07-01T03:38:15;37.50;;;22.63;;
31406;SDS011;18043;52.438;4.836;2022-07-01T03:40:50;36.55;;;22.52;;
31406;SDS011;18043;52.438;4.836;2022-07-01T03:43:22;35.00;;;21.77;;
31406;SDS011;18043;52.438;4.836;2022-07-01T03:45:55;34.47;;;21.52;;
31406;SDS011;18043;52.438;4.836;2022-07-01T03:48:28;38.00;;;22.05;;
31406;SDS011;18043;52.438;4.836;2022-07-01T03:51:01;36.35;;;21.15;;
31406;SDS011;18043;52.438;4.836;2022-07-01T03:53:33;31.45;;;19.60;;
31406;SDS011;18043;52.438;4.836;2022-07-01T03:56:25;27.67;;;19.25;;
31406;SDS011;18043;52.438;4.836;2022-07-01T03:58:58;32.30;;;19.38;;
31406;SDS011;18043;52.438;4.836;2022-07-01T04:01:31;31.77;;;18.77;;
31406;SDS011;18043;52.438;4.836;2022-07-01T04:04:04;30.70;;;18.60;;
31406;SDS011;18043;52.438;4.836;2022-07-01T04:06:36;32.17;;;19.13;;
31406;SDS011;18043;52.438;4.836;2022-07-01T04:09:09;31.13;;;19.05;;
31406;SDS011;18043;52.438;4.836;2022-07-01T04:11:46;33.80;;;18.75;;
31406;SDS011;18043;52.438;4.836;2022-07-01T04:14:20;31.38;;;19.15;;
31406;SDS011;18043;52.438;4.836;2022-07-01T04:16:54;29.13;;;19.30;;
31406;SDS011;18043;52.438;4.836;2022-07-01T04:19:27;25.00;;;17.63;;
31406;SDS011;18043;52.438;4.836;2022-07-01T04:21:59;26.13;;;17.17;;
31406;SDS011;18043;52.438;4.836;2022-07-01T04:24:49;24.52;;;16.33;;
31406;SDS011;18043;52.438;4.836;2022-07-01T04:27:24;24.55;;;15.27;;
31406;SDS011;18043;52.438;4.836;2022-07-01T04:29:56;24.58;;;14.90;;
31406;SDS011;18043;52.438;4.836;2022-07-01T04:32:29;23.77;;;14.27;;
31406;SDS011;18043;52.438;4.836;2022-07-01T04:35:02;21.83;;;13.23;;
31406;SDS011;18043;52.438;4.836;2022-07-01T04:37:36;20.95;;;11.88;;
31406;SDS011;18043;52.438;4.836;2022-07-01T04:40:08;20.75;;;11.70;;
31406;SDS011;18043;52.438;4.836;2022-07-01T04:42:43;20.52;;;10.75;;
31406;SDS011;18043;52.438;4.836;2022-07-01T04:45:15;20.58;;;11.15;;
31406;SDS011;18043;52.438;4.836;2022-07-01T04:47:48;17.92;;;11.25;;
31406;SDS011;18043;52.438;4.836;2022-07-01T04:50:20;17.85;;;11.40;;
31406;SDS011;18043;52.438;4.836;2022-07-01T04:52:53;24.52;;;10.20;;
31406;SDS011;18043;52.438;4.836;2022-07-01T04:55:26;18.55;;;10.05;;
31406;SDS011;18043;52.438;4.836;2022-07-01T04:58:00;17.02;;;10.48;;
31406;SDS011;18043;52.438;4.836;2022-07-01T05:00:33;16.60;;;9.57;;
31406;SDS011;18043;52.438;4.836;2022-07-01T05:03:06;16.73;;;9.93;;
31406;SDS011;18043;52.438;4.836;2022-07-01T05:05:38;18.63;;;10.15;;
31406;SDS011;18043;52.438;4.836;2022-07-01T05:08:11;20.48;;;10.05;;
31406;SDS011;18043;52.438;4.836;2022-07-01T05:10:44;14.37;;;7.77;;
31406;SDS011;18043;52.438;4.836;2022-07-01T05:13:18;18.00;;;8.73;;
31406;SDS011;18043;52.438;4.836;2022-07-01T05:15:51;15.30;;;7.70;;
31406;SDS011;18043;52.438;4.836;2022-07-01T05:18:23;11.20;;;6.25;;
31406;SDS011;18043;52.438;4.836;2022-07-01T05:21:14;18.80;;;6.40;;
31406;SDS011;18043;52.438;4.836;2022-07-01T05:24:05;15.30;;;6.32;;
31406;SDS011;18043;52.438;4.836;2022-07-01T05:26:39;11.57;;;5.40;;
31406;SDS011;18043;52.438;4.836;2022-07-01T05:29:13;11.68;;;5.55;;
31406;SDS011;18043;52.438;4.836;2022-07-01T05:31:46;19.47;;;6.23;;
31406;SDS011;18043;52.438;4.836;2022-07-01T05:34:18;12.60;;;5.78;;
31406;SDS011;18043;52.438;4.836;2022-07-01T05:36:52;9.60;;;5.28;;
31406;SDS011;18043;52.438;4.836;2022-07-01T05:39:24;10.40;;;4.63;;
31406;SDS011;18043;52.438;4.836;2022-07-01T05:41:57;11.55;;;4.55;;
31406;SDS011;18043;52.438;4.836;2022-07-01T05:44:31;14.50;;;4.72;;
31406;SDS011;18043;52.438;4.836;2022-07-01T05:47:04;10.30;;;4.97;;
31406;SDS011;18043;52.438;4.836;2022-07-01T05:49:38;17.20;;;5.57;;
31406;SDS011;18043;52.438;4.836;2022-07-01T05:52:11;10.95;;;5.05;;
31406;SDS011;18043;52.438;4.836;2022-07-01T05:54:43;12.05;;;5.25;;
31406;SDS011;18043;52.438;4.836;2022-07-01T05:57:16;8.77;;;4.50;;
31406;SDS011;18043;52.438;4.836;2022-07-01T05:59:50;10.23;;;4.70;;
31406;SDS011;18043;52.438;4.836;2022-07-01T06:02:23;9.75;;;5.07;;
31406;SDS011;18043;52.438;4.836;2022-07-01T06:04:57;15.60;;;5.47;;
31406;SDS011;18043;52.438;4.836;2022-07-01T06:07:30;12.57;;;5.23;;
31406;SDS011;18043;52.438;4.836;2022-07-01T06:10:03;11.55;;;4.75;;
31406;SDS011;18043;52.438;4.836;2022-07-01T06:12:36;12.73;;;5.47;;
31406;SDS011;18043;52.438;4.836;2022-07-01T06:15:11;11.90;;;4.60;;
31406;SDS011;18043;52.438;4.836;2022-07-01T06:17:44;18.17;;;4.67;;
31406;SDS011;18043;52.438;4.836;2022-07-01T06:20:17;9.05;;;4.20;;
31406;SDS011;18043;52.438;4.836;2022-07-01T06:22:50;9.73;;;4.32;;
31406;SDS011;18043;52.438;4.836;2022-07-01T06:25:22;11.23;;;4.28;;
31406;SDS011;18043;52.438;4.836;2022-07-01T06:27:55;9.32;;;3.95;;
31406;SDS011;18043;52.438;4.836;2022-07-01T06:30:29;13.17;;;4.70;;
31406;SDS011;18043;52.438;4.836;2022-07-01T06:33:02;11.15;;;4.40;;
31406;SDS011;18043;52.438;4.836;2022-07-01T06:35:35;10.65;;;4.10;;
31406;SDS011;18043;52.438;4.836;2022-07-01T06:38:08;9.77;;;3.47;;
31406;SDS011;18043;52.438;4.836;2022-07-01T06:40:41;7.75;;;3.67;;
31406;SDS011;18043;52.438;4.836;2022-07-01T06:43:33;10.60;;;3.83;;
31406;SDS011;18043;52.438;4.836;2022-07-01T06:46:07;8.88;;;2.83;;
31406;SDS011;18043;52.438;4.836;2022-07-01T06:48:41;9.00;;;3.30;;
31406;SDS011;18043;52.438;4.836;2022-07-01T06:51:13;13.38;;;3.83;;
31406;SDS011;18043;52.438;4.836;2022-07-01T06:53:46;7.85;;;2.38;;
31406;SDS011;18043;52.438;4.836;2022-07-01T06:56:20;10.57;;;3.13;;
31406;SDS011;18043;52.438;4.836;2022-07-01T06:58:53;8.60;;;2.67;;
31406;SDS011;18043;52.438;4.836;2022-07-01T07:01:27;9.93;;;2.55;;
31406;SDS011;18043;52.438;4.836;2022-07-01T07:04:00;10.30;;;2.50;;
31406;SDS011;18043;52.438;4.836;2022-07-01T07:06:36;6.83;;;2.50;;
31406;SDS011;18043;52.438;4.836;2022-07-01T07:09:09;8.77;;;2.50;;
31406;SDS011;18043;52.438;4.836;2022-07-01T07:11:41;6.37;;;2.30;;
31406;SDS011;18043;52.438;4.836;2022-07-01T07:14:14;8.05;;;2.70;;
31406;SDS011;18043;52.438;4.836;2022-07-01T07:16:48;8.52;;;2.50;;
31406;SDS011;18043;52.438;4.836;2022-07-01T07:19:27;7.95;;;1.77;;
31406;SDS011;18043;52.438;4.836;2022-07-01T07:21:59;6.40;;;2.00;;
31406;SDS011;18043;52.438;4.836;2022-07-01T07:24:32;8.60;;;2.20;;
31406;SDS011;18043;52.438;4.836;2022-07-01T07:27:05;8.20;;;2.27;;
31406;SDS011;18043;52.438;4.836;2022-07-01T07:29:38;10.73;;;2.20;;
31406;SDS011;18043;52.438;4.836;2022-07-01T07:32:11;6.10;;;1.50;;
31406;SDS011;18043;52.438;4.836;2022-07-01T07:34:44;10.03;;;2.50;;
31406;SDS011;18043;52.438;4.836;2022-07-01T07:37:17;6.45;;;1.90;;
31406;SDS011;18043;52.438;4.836;2022-07-01T07:39:50;7.78;;;2.35;;
31406;SDS011;18043;52.438;4.836;2022-07-01T07:42:22;11.53;;;1.70;;
31406;SDS011;18043;52.438;4.836;2022-07-01T07:44:55;6.38;;;1.75;;
31406;SDS011;18043;52.438;4.836;2022-07-01T07:47:29;6.22;;;1.60;;
31406;SDS011;18043;52.438;4.836;2022-07-01T07:50:02;6.57;;;1.60;;
31406;SDS011;18043;52.438;4.836;2022-07-01T07:52:36;3.85;;;1.30;;
31406;SDS011;18043;52.438;4.836;2022-07-01T07:55:09;7.55;;;1.80;;
31406;SDS011;18043;52.438;4.836;2022-07-01T07:57:42;5.05;;;1.20;;
31406;SDS011;18043;52.438;4.836;2022-07-01T08:00:15;3.03;;;0.75;;
31406;SDS011;18043;52.438;4.836;2022-07-01T08:02:50;7.00;;;1.40;;
31406;SDS011;18043;52.438;4.836;2022-07-01T08:05:22;5.03;;;1.50;;
31406;SDS011;18043;52.438;4.836;2022-07-01T08:07:55;4.93;;;1.05;;
31406;SDS011;18043;52.438;4.836;2022-07-01T08:10:28;4.28;;;1.00;;
31406;SDS011;18043;52.438;4.836;2022-07-01T08:13:01;2.95;;;1.00;;
31406;SDS011;18043;52.438;4.836;2022-07-01T08:15:36;2.57;;;0.80;;
31406;SDS011;18043;52.438;4.836;2022-07-01T08:18:10;6.03;;;1.47;;
31406;SDS011;18043;52.438;4.836;2022-07-01T08:20:42;5.30;;;0.90;;
31406;SDS011;18043;52.438;4.836;2022-07-01T08:23:16;4.85;;;1.08;;
31406;SDS011;18043;52.438;4.836;2022-07-01T08:25:49;5.25;;;0.98;;
31406;SDS011;18043;52.438;4.836;2022-07-01T08:28:22;3.73;;;0.77;;
31406;SDS011;18043;52.438;4.836;2022-07-01T08:30:55;3.83;;;0.80;;
31406;SDS011;18043;52.438;4.836;2022-07-01T08:33:29;3.47;;;0.97;;
31406;SDS011;18043;52.438;4.836;2022-07-01T08:36:02;3.00;;;0.85;;
31406;SDS011;18043;52.438;4.836;2022-07-01T08:38:36;4.97;;;0.93;;
31406;SDS011;18043;52.438;4.836;2022-07-01T08:41:09;2.35;;;0.90;;
31406;SDS011;18043;52.438;4.836;2022-07-01T08:43:44;4.50;;;0.90;;
31406;SDS011;18043;52.438;4.836;2022-07-01T08:46:17;4.97;;;1.20;;
31406;SDS011;18043;52.438;4.836;2022-07-01T08:48:51;5.32;;;1.35;;
31406;SDS011;18043;52.438;4.836;2022-07-01T08:51:24;2.40;;;0.77;;
31406;SDS011;18043;52.438;4.836;2022-07-01T08:53:56;5.07;;;1.08;;
31406;SDS011;18043;52.438;4.836;2022-07-01T08:56:29;2.33;;;0.80;;
31406;SDS011;18043;52.438;4.836;2022-07-01T08:59:21;4.55;;;1.10;;
31406;SDS011;18043;52.438;4.836;2022-07-01T09:01:56;5.80;;;1.02;;
31406;SDS011;18043;52.438;4.836;2022-07-01T09:04:32;3.88;;;1.10;;
31406;SDS011;18043;52.438;4.836;2022-07-01T09:07:05;5.37;;;1.50;;
31406;SDS011;18043;52.438;4.836;2022-07-01T09:09:40;8.53;;;1.83;;
31406;SDS011;18043;52.438;4.836;2022-07-01T09:12:13;7.72;;;1.58;;
31406;SDS011;18043;52.438;4.836;2022-07-01T09:14:48;6.50;;;0.90;;
31406;SDS011;18043;52.438;4.836;2022-07-01T09:17:22;5.65;;;1.13;;
31406;SDS011;18043;52.438;4.836;2022-07-01T09:19:56;3.83;;;0.93;;
31406;SDS011;18043;52.438;4.836;2022-07-01T09:22:29;5.03;;;1.08;;
31406;SDS011;18043;52.438;4.836;2022-07-01T09:25:01;6.77;;;1.20;;
31406;SDS011;18043;52.438;4.836;2022-07-01T09:27:45;6.65;;;1.30;;
31406;SDS011;18043;52.438;4.836;2022-07-01T09:30:26;4.20;;;1.00;;
31406;SDS011;18043;52.438;4.836;2022-07-01T09:33:09;4.35;;;1.20;;
31406;SDS011;18043;52.438;4.836;2022-07-01T09:35:46;3.87;;;1.20;;
31406;SDS011;18043;52.438;4.836;2022-07-01T09:38:21;5.85;;;1.02;;
31406;SDS011;18043;52.438;4.836;2022-07-01T09:40:55;5.78;;;1.60;;
31406;SDS011;18043;52.438;4.836;2022-07-01T09:43:30;6.43;;;1.10;;
31406;SDS011;18043;52.438;4.836;2022-07-01T09:46:05;4.47;;;1.10;;
31406;SDS011;18043;52.438;4.836;2022-07-01T09:48:44;7.97;;;1.88;;
31406;SDS011;18043;52.438;4.836;2022-07-01T09:51:18;4.38;;;1.23;;
31406;SDS011;18043;52.438;4.836;2022-07-01T09:53:51;5.13;;;1.50;;
31406;SDS011;18043;52.438;4.836;2022-07-01T09:56:24;5.17;;;1.03;;
31406;SDS011;18043;52.438;4.836;2022-07-01T09:58:57;6.40;;;1.30;;
31406;SDS011;18043;52.438;4.836;2022-07-01T10:01:30;5.90;;;1.10;;
31406;SDS011;18043;52.438;4.836;2022-07-01T10:04:04;3.85;;;1.20;;
31406;SDS011;18043;52.438;4.836;2022-07-01T10:09:54;6.10;;;1.27;;
31406;SDS011;18043;52.438;4.836;2022-07-01T10:12:38;8.48;;;1.90;;
31406;SDS011;18043;52.438;4.836;2022-07-01T10:15:15;8.07;;;1.70;;
31406;SDS011;18043;52.438;4.836;2022-07-01T10:17:50;6.53;;;1.73;;
31406;SDS011;18043;52.438;4.836;2022-07-01T10:20:24;6.25;;;1.20;;
31406;SDS011;18043;52.438;4.836;2022-07-01T10:23:03;5.15;;;1.40;;
31406;SDS011;18043;52.438;4.836;2022-07-01T10:25:39;5.90;;;1.60;;
31406;SDS011;18043;52.438;4.836;2022-07-01T10:28:14;5.78;;;1.70;;
31406;SDS011;18043;52.438;4.836;2022-07-01T10:30:57;6.68;;;1.80;;
31406;SDS011;18043;52.438;4.836;2022-07-01T10:33:33;5.72;;;1.55;;
31406;SDS011;18043;52.438;4.836;2022-07-01T10:36:12;12.38;;;2.00;;
31406;SDS011;18043;52.438;4.836;2022-07-01T10:39:08;5.78;;;1.88;;
31406;SDS011;18043;52.438;4.836;2022-07-01T10:41:56;5.25;;;1.50;;
31406;SDS011;18043;52.438;4.836;2022-07-01T10:44:36;4.63;;;1.35;;
31406;SDS011;18043;52.438;4.836;2022-07-01T10:47:09;8.27;;;2.33;;
31406;SDS011;18043;52.438;4.836;2022-07-01T10:49:52;6.37;;;1.90;;
31406;SDS011;18043;52.438;4.836;2022-07-01T10:52:28;6.77;;;2.00;;
31406;SDS011;18043;52.438;4.836;2022-07-01T10:55:03;10.30;;;1.77;;
31406;SDS011;18043;52.438;4.836;2022-07-01T10:57:38;5.07;;;1.50;;
31406;SDS011;18043;52.438;4.836;2022-07-01T11:00:28;7.50;;;1.55;;
31406;SDS011;18043;52.438;4.836;2022-07-01T11:06:10;6.47;;;1.63;;
31406;SDS011;18043;52.438;4.836;2022-07-01T11:08:47;5.85;;;1.23;;
31406;SDS011;18043;52.438;4.836;2022-07-01T11:11:22;6.80;;;1.40;;
31406;SDS011;18043;52.438;4.836;2022-07-01T11:13:56;5.80;;;1.25;;
31406;SDS011;18043;52.438;4.836;2022-07-01T11:16:29;3.97;;;1.50;;
31406;SDS011;18043;52.438;4.836;2022-07-01T11:19:02;4.50;;;1.15;;
31406;SDS011;18043;52.438;4.836;2022-07-01T11:21:38;4.47;;;1.15;;
31406;SDS011;18043;52.438;4.836;2022-07-01T11:24:19;5.57;;;1.00;;
31406;SDS011;18043;52.438;4.836;2022-07-01T11:26:57;4.87;;;1.03;;
31406;SDS011;18043;52.438;4.836;2022-07-01T11:29:36;7.77;;;1.50;;
31406;SDS011;18043;52.438;4.836;2022-07-01T11:32:09;4.50;;;0.97;;
31406;SDS011;18043;52.438;4.836;2022-07-01T11:34:42;5.82;;;1.42;;
31406;SDS011;18043;52.438;4.836;2022-07-01T11:37:15;4.57;;;1.52;;
31406;SDS011;18043;52.438;4.836;2022-07-01T11:40:06;5.60;;;1.30;;
31406;SDS011;18043;52.438;4.836;2022-07-01T11:42:43;2.63;;;1.00;;
31406;SDS011;18043;52.438;4.836;2022-07-01T11:45:23;5.07;;;1.52;;
31406;SDS011;18043;52.438;4.836;2022-07-01T11:47:57;6.18;;;1.50;;
31406;SDS011;18043;52.438;4.836;2022-07-01T11:50:32;7.35;;;1.35;;
31406;SDS011;18043;52.438;4.836;2022-07-01T11:53:06;3.53;;;1.30;;
31406;SDS011;18043;52.438;4.836;2022-07-01T11:55:43;9.48;;;2.08;;
31406;SDS011;18043;52.438;4.836;2022-07-01T11:58:18;5.18;;;1.20;;
31406;SDS011;18043;52.438;4.836;2022-07-01T12:00:51;6.88;;;1.50;;
31406;SDS011;18043;52.438;4.836;2022-07-01T12:03:30;5.50;;;1.27;;
31406;SDS011;18043;52.438;4.836;2022-07-01T12:06:05;7.35;;;1.30;;
31406;SDS011;18043;52.438;4.836;2022-07-01T12:08:38;4.78;;;1.75;;
31406;SDS011;18043;52.438;4.836;2022-07-01T12:11:13;6.97;;;1.67;;
31406;SDS011;18043;52.438;4.836;2022-07-01T12:13:49;5.68;;;1.58;;
31406;SDS011;18043;52.438;4.836;2022-07-01T12:16:22;6.75;;;1.83;;
31406;SDS011;18043;52.438;4.836;2022-07-01T12:18:57;7.07;;;1.70;;
31406;SDS011;18043;52.438;4.836;2022-07-01T12:21:36;12.10;;;1.55;;
31406;SDS011;18043;52.438;4.836;2022-07-01T12:24:20;9.07;;;1.88;;
31406;SDS011;18043;52.438;4.836;2022-07-01T12:27:00;7.25;;;1.52;;
31406;SDS011;18043;52.438;4.836;2022-07-01T12:32:26;7.47;;;1.70;;
31406;SDS011;18043;52.438;4.836;2022-07-01T12:35:02;3.28;;;1.23;;
31406;SDS011;18043;52.438;4.836;2022-07-01T12:37:56;5.47;;;0.88;;
31406;SDS011;18043;52.438;4.836;2022-07-01T12:40:31;7.80;;;1.20;;
31406;SDS011;18043;52.438;4.836;2022-07-01T12:43:04;6.95;;;1.08;;
31406;SDS011;18043;52.438;4.836;2022-07-01T12:45:54;5.53;;;1.50;;
31406;SDS011;18043;52.438;4.836;2022-07-01T12:48:28;5.95;;;1.48;;
31406;SDS011;18043;52.438;4.836;2022-07-01T12:51:18;6.35;;;1.27;;
31406;SDS011;18043;52.438;4.836;2022-07-01T12:53:50;4.30;;;1.30;;
31406;SDS011;18043;52.438;4.836;2022-07-01T12:56:24;7.75;;;1.50;;
31406;SDS011;18043;52.438;4.836;2022-07-01T12:59:00;4.80;;;1.15;;
31406;SDS011;18043;52.438;4.836;2022-07-01T13:01:34;7.15;;;2.10;;
31406;SDS011;18043;52.438;4.836;2022-07-01T13:04:07;8.25;;;1.45;;
31406;SDS011;18043;52.438;4.836;2022-07-01T13:06:40;4.47;;;1.08;;
31406;SDS011;18043;52.438;4.836;2022-07-01T13:09:12;4.93;;;1.10;;
31406;SDS011;18043;52.438;4.836;2022-07-01T13:11:45;4.18;;;1.65;;
31406;SDS011;18043;52.438;4.836;2022-07-01T13:14:21;8.03;;;1.80;;
31406;SDS011;18043;52.438;4.836;2022-07-01T13:16:55;7.63;;;2.03;;
31406;SDS011;18043;52.438;4.836;2022-07-01T13:19:27;4.82;;;1.55;;
31406;SDS011;18043;52.438;4.836;2022-07-01T13:22:03;7.40;;;1.70;;
31406;SDS011;18043;52.438;4.836;2022-07-01T13:24:36;2.47;;;0.90;;
31406;SDS011;18043;52.438;4.836;2022-07-01T13:27:09;7.05;;;1.50;;
31406;SDS011;18043;52.438;4.836;2022-07-01T13:29:42;7.63;;;1.77;;
31406;SDS011;18043;52.438;4.836;2022-07-01T13:32:16;5.77;;;1.47;;
31406;SDS011;18043;52.438;4.836;2022-07-01T13:34:49;6.03;;;1.75;;
31406;SDS011;18043;52.438;4.836;2022-07-01T13:37:22;5.78;;;1.33;;
31406;SDS011;18043;52.438;4.836;2022-07-01T13:39:55;5.97;;;1.50;;
31406;SDS011;18043;52.438;4.836;2022-07-01T13:42:28;4.90;;;1.10;;
31406;SDS011;18043;52.438;4.836;2022-07-01T13:45:01;7.40;;;1.47;;
31406;SDS011;18043;52.438;4.836;2022-07-01T13:47:35;5.90;;;1.55;;
31406;SDS011;18043;52.438;4.836;2022-07-01T13:50:08;9.20;;;1.33;;
31406;SDS011;18043;52.438;4.836;2022-07-01T13:52:42;6.90;;;1.40;;
31406;SDS011;18043;52.438;4.836;2022-07-01T13:55:15;7.03;;;1.50;;
31406;SDS011;18043;52.438;4.836;2022-07-01T13:57:48;5.10;;;1.45;;
31406;SDS011;18043;52.438;4.836;2022-07-01T14:00:21;4.22;;;0.98;;
31406;SDS011;18043;52.438;4.836;2022-07-01T14:02:55;5.70;;;1.20;;
31406;SDS011;18043;52.438;4.836;2022-07-01T14:05:28;6.70;;;1.50;;
31406;SDS011;18043;52.438;4.836;2022-07-01T14:08:00;3.40;;;1.30;;
31406;SDS011;18043;52.438;4.836;2022-07-01T14:10:33;4.15;;;0.85;;
31406;SDS011;18043;52.438;4.836;2022-07-01T14:13:07;6.30;;;0.90;;
31406;SDS011;18043;52.438;4.836;2022-07-01T14:15:40;4.45;;;1.10;;
31406;SDS011;18043;52.438;4.836;2022-07-01T14:18:14;3.22;;;1.00;;
31406;SDS011;18043;52.438;4.836;2022-07-01T14:20:47;1.98;;;0.80;;
31406;SDS011;18043;52.438;4.836;2022-07-01T14:23:20;6.33;;;1.10;;
31406;SDS011;18043;52.438;4.836;2022-07-01T14:25:53;3.47;;;0.80;;
31406;SDS011;18043;52.438;4.836;2022-07-01T14:28:26;5.75;;;1.08;;
31406;SDS011;18043;52.438;4.836;2022-07-01T14:30:58;3.53;;;0.90;;
31406;SDS011;18043;52.438;4.836;2022-07-01T14:33:33;4.60;;;1.08;;
31406;SDS011;18043;52.438;4.836;2022-07-01T14:36:05;4.80;;;0.80;;
31406;SDS011;18043;52.438;4.836;2022-07-01T14:38:39;4.38;;;1.60;;
31406;SDS011;18043;52.438;4.836;2022-07-01T14:41:12;3.60;;;0.90;;
31406;SDS011;18043;52.438;4.836;2022-07-01T14:46:47;4.30;;;1.15;;
31406;SDS011;18043;52.438;4.836;2022-07-01T14:49:22;4.45;;;0.85;;
31406;SDS011;18043;52.438;4.836;2022-07-01T14:54:47;3.25;;;0.90;;
31406;SDS011;18043;52.438;4.836;2022-07-01T14:57:21;3.85;;;1.13;;
31406;SDS011;18043;52.438;4.836;2022-07-01T14:59:53;6.57;;;1.20;;
31406;SDS011;18043;52.438;4.836;2022-07-01T15:02:27;4.15;;;0.95;;
31406;SDS011;18043;52.438;4.836;2022-07-01T15:05:01;2.58;;;0.73;;
31406;SDS011;18043;52.438;4.836;2022-07-01T15:07:34;3.88;;;1.10;;
31406;SDS011;18043;52.438;4.836;2022-07-01T15:10:07;3.67;;;1.17;;
31406;SDS011;18043;52.438;4.836;2022-07-01T15:12:40;4.68;;;1.38;;
31406;SDS011;18043;52.438;4.836;2022-07-01T15:15:13;3.95;;;1.08;;
31406;SDS011;18043;52.438;4.836;2022-07-01T15:17:46;2.83;;;1.02;;
31406;SDS011;18043;52.438;4.836;2022-07-01T15:20:20;4.55;;;0.90;;
31406;SDS011;18043;52.438;4.836;2022-07-01T15:22:53;3.63;;;1.00;;
31406;SDS011;18043;52.438;4.836;2022-07-01T15:25:28;2.72;;;0.68;;
31406;SDS011;18043;52.438;4.836;2022-07-01T15:28:01;2.42;;;1.10;;
31406;SDS011;18043;52.438;4.836;2022-07-01T15:30:34;3.77;;;0.70;;
31406;SDS011;18043;52.438;4.836;2022-07-01T15:33:07;1.75;;;0.57;;
31406;SDS011;18043;52.438;4.836;2022-07-01T15:35:41;6.90;;;1.00;;